createdAt,value
2022-08-30T00:02:12.009Z,3.25
2022-08-30T00:04:44.983Z,2.70
2022-08-30T00:07:12.208Z,2.70
2022-08-30T00:09:39.347Z,3.22
2022-08-30T00:12:06.702Z,2.80
2022-08-30T00:14:34.756Z,2.85
2022-08-30T00:17:01.821Z,2.88
2022-08-30T00:19:28.873Z,3.03
2022-08-30T00:21:55.986Z,3.10
2022-08-30T00:24:23.150Z,2.80
2022-08-30T00:26:51.250Z,3.10
2022-08-30T00:29:18.401Z,2.95
2022-08-30T00:31:45.433Z,3.20
2022-08-30T00:34:12.499Z,3.10
2022-08-30T00:36:39.646Z,3.22
2022-08-30T00:39:07.827Z,3.35
2022-08-30T00:41:35.212Z,3.08
2022-08-30T00:44:04.884Z,3.13
2022-08-30T00:46:32.548Z,3.20
2022-08-30T00:49:05.607Z,3.30
2022-08-30T00:51:33.522Z,3.20
2022-08-30T00:54:01.859Z,3.10
2022-08-30T00:56:31.621Z,3.30
2022-08-30T00:59:03.950Z,3.30
2022-08-30T01:01:34.058Z,3.60
2022-08-30T01:04:08.767Z,3.65
2022-08-30T01:06:39.396Z,3.70
2022-08-30T01:09:08.946Z,3.83
2022-08-30T01:11:38.262Z,3.50
2022-08-30T01:14:06.886Z,3.53
2022-08-30T01:16:36.029Z,3.33
2022-08-30T01:19:06.710Z,3.50
2022-08-30T01:21:48.022Z,3.63
2022-08-30T01:24:23.568Z,3.42
2022-08-30T01:26:50.693Z,3.63
2022-08-30T01:29:23.008Z,3.60
2022-08-30T01:31:50.181Z,3.72
2022-08-30T01:34:19.672Z,3.63
2022-08-30T01:36:49.392Z,3.72
2022-08-30T01:39:19.170Z,3.97
2022-08-30T01:41:47.139Z,4.00
2022-08-30T01:44:15.239Z,4.20
2022-08-30T01:46:47.285Z,3.72
2022-08-30T01:49:27.338Z,4.20
2022-08-30T01:52:00.257Z,4.25
2022-08-30T01:54:36.938Z,3.90
2022-08-30T01:57:10.027Z,3.88
2022-08-30T01:59:40.064Z,4.20
2022-08-30T02:02:07.507Z,4.15
2022-08-30T02:04:36.264Z,4.18
2022-08-30T02:07:05.202Z,4.82
2022-08-30T02:09:32.478Z,4.40
2022-08-30T02:11:59.686Z,4.50
2022-08-30T02:14:27.560Z,4.50
2022-08-30T02:16:54.767Z,4.70
2022-08-30T02:19:22.114Z,4.38
2022-08-30T02:21:50.363Z,4.88
2022-08-30T02:24:17.441Z,4.72
2022-08-30T02:26:44.880Z,4.57
2022-08-30T02:29:12.087Z,4.75
2022-08-30T02:31:39.188Z,4.82
2022-08-30T02:34:07.913Z,4.80
2022-08-30T02:36:36.783Z,4.70
2022-08-30T02:39:03.916Z,4.88
2022-08-30T02:41:31.028Z,4.97
2022-08-30T02:44:02.041Z,5.10
2022-08-30T02:46:33.258Z,5.47
2022-08-30T02:49:13.182Z,5.55
2022-08-30T02:51:50.152Z,5.18
2022-08-30T02:54:20.051Z,5.53
2022-08-30T02:56:50.057Z,5.70
2022-08-30T02:59:19.518Z,5.60
2022-08-30T03:01:46.806Z,5.45
2022-08-30T03:04:14.976Z,5.60
2022-08-30T03:06:42.136Z,6.05
2022-08-30T03:09:09.289Z,5.72
2022-08-30T03:11:37.597Z,6.10
2022-08-30T03:14:04.881Z,5.63
2022-08-30T03:16:32.074Z,6.10
2022-08-30T03:18:59.264Z,5.65
2022-08-30T03:21:27.629Z,5.95
2022-08-30T03:23:54.816Z,6.10
2022-08-30T03:26:21.815Z,6.22
2022-08-30T03:28:48.823Z,5.90
2022-08-30T03:31:15.959Z,6.13
2022-08-30T03:33:43.304Z,5.78
2022-08-30T03:36:12.039Z,5.55
2022-08-30T03:38:39.557Z,5.55
2022-08-30T03:41:07.545Z,5.47
2022-08-30T03:43:36.323Z,6.28
2022-08-30T03:46:04.561Z,6.07
2022-08-30T03:48:31.820Z,5.75
2022-08-30T03:50:58.985Z,6.07
2022-08-30T03:53:27.267Z,6.72
2022-08-30T03:55:55.196Z,6.03
2022-08-30T03:58:25.073Z,7.15
2022-08-30T04:00:52.485Z,6.13
2022-08-30T04:03:25.691Z,6.70
2022-08-30T04:05:55.172Z,6.28
2022-08-30T04:08:23.351Z,6.55
2022-08-30T04:10:51.594Z,6.28
2022-08-30T04:13:19.564Z,6.78
2022-08-30T04:15:47.121Z,6.65
2022-08-30T04:18:14.361Z,7.10
2022-08-30T04:20:42.497Z,7.00
2022-08-30T04:23:12.467Z,7.60
2022-08-30T04:25:41.585Z,7.18
2022-08-30T04:28:09.426Z,7.00
2022-08-30T04:30:45.585Z,7.88
2022-08-30T04:33:15.165Z,7.75
2022-08-30T04:35:46.789Z,7.70
2022-08-30T04:38:16.587Z,7.82
2022-08-30T04:40:48.556Z,7.63
2022-08-30T04:43:16.521Z,7.70
2022-08-30T04:45:43.809Z,7.75
2022-08-30T04:48:10.960Z,8.07
2022-08-30T04:50:39.619Z,7.97
2022-08-30T04:53:15.031Z,8.90
2022-08-30T04:55:43.611Z,8.38
2022-08-30T04:58:12.009Z,8.18
2022-08-30T05:00:42.076Z,8.25
2022-08-30T05:03:09.465Z,9.23
2022-08-30T05:05:39.826Z,8.82
2022-08-30T05:08:12.737Z,9.15
2022-08-30T05:10:44.123Z,8.73
2022-08-30T05:13:20.767Z,8.88
2022-08-30T05:15:51.493Z,7.95
2022-08-30T05:18:21.499Z,7.85
2022-08-30T05:20:49.597Z,8.63
2022-08-30T05:23:16.932Z,7.60
2022-08-30T05:25:46.077Z,8.25
2022-08-30T05:28:13.207Z,7.07
2022-08-30T05:30:40.307Z,7.75
2022-08-30T05:33:07.716Z,7.45
2022-08-30T05:35:34.916Z,7.30
2022-08-30T05:38:05.641Z,7.50
2022-08-30T05:40:34.286Z,7.47
2022-08-30T05:43:01.451Z,7.38
2022-08-30T05:45:29.629Z,7.20
2022-08-30T05:47:56.668Z,7.30
2022-08-30T05:50:24.204Z,7.22
2022-08-30T05:52:51.303Z,7.15
2022-08-30T05:55:45.399Z,6.88
2022-08-30T05:58:12.577Z,6.93
2022-08-30T06:00:42.028Z,6.30
2022-08-30T06:03:12.024Z,6.47
2022-08-30T06:05:39.262Z,6.20
2022-08-30T06:08:07.409Z,6.13
2022-08-30T06:10:34.699Z,6.50
2022-08-30T06:13:01.780Z,6.05
2022-08-30T06:15:29.051Z,5.80
2022-08-30T06:17:56.324Z,6.13
2022-08-30T06:20:23.588Z,6.15
2022-08-30T06:22:50.764Z,5.57
2022-08-30T06:25:18.067Z,5.93
2022-08-30T06:27:45.212Z,5.50
2022-08-30T06:30:13.075Z,5.10
2022-08-30T06:32:40.200Z,5.10
2022-08-30T06:35:08.358Z,5.35
2022-08-30T06:37:35.580Z,5.13
2022-08-30T06:40:03.814Z,4.88
2022-08-30T06:42:36.878Z,4.30
2022-08-30T06:45:11.140Z,4.90
2022-08-30T06:47:40.567Z,4.40
2022-08-30T06:50:11.925Z,3.97
2022-08-30T06:52:42.324Z,4.00
2022-08-30T06:55:13.637Z,4.30
2022-08-30T06:57:40.995Z,4.30
2022-08-30T07:00:13.782Z,3.65
2022-08-30T07:02:42.052Z,3.40
2022-08-30T07:05:15.395Z,4.00
2022-08-30T07:07:44.029Z,3.08
2022-08-30T07:10:12.671Z,3.17
2022-08-30T07:12:42.798Z,3.20
2022-08-30T07:15:11.449Z,3.00
2022-08-30T07:17:57.466Z,2.90
2022-08-30T07:20:25.907Z,2.85
2022-08-30T07:22:53.065Z,2.53
2022-08-30T07:25:20.384Z,2.72
2022-08-30T07:27:47.607Z,2.40
2022-08-30T07:30:14.699Z,2.30
2022-08-30T07:32:44.409Z,2.30
2022-08-30T07:35:11.513Z,2.20
2022-08-30T07:37:39.623Z,2.05
2022-08-30T07:40:09.139Z,2.05
2022-08-30T07:42:36.300Z,2.10
2022-08-30T07:45:04.662Z,2.00
2022-08-30T07:47:37.261Z,1.95
2022-08-30T07:50:09.206Z,1.90
2022-08-30T07:55:10.043Z,2.08
2022-08-30T07:57:39.576Z,1.75
2022-08-30T08:00:10.825Z,1.95
2022-08-30T08:02:42.547Z,2.08
2022-08-30T08:05:15.068Z,1.83
2022-08-30T08:07:44.132Z,1.55
2022-08-30T08:10:15.148Z,1.40
2022-08-30T08:12:42.236Z,1.63
2022-08-30T08:15:11.551Z,1.67
2022-08-30T08:17:38.779Z,1.85
2022-08-30T08:20:06.527Z,1.55
2022-08-30T08:22:36.864Z,1.23
2022-08-30T08:25:07.375Z,1.48
2022-08-30T08:27:34.557Z,1.60
2022-08-30T08:30:01.708Z,1.40
2022-08-30T08:32:28.827Z,1.40
2022-08-30T08:34:55.960Z,1.40
2022-08-30T08:37:23.906Z,1.30
2022-08-30T08:40:04.446Z,1.25
2022-08-30T08:43:01.363Z,1.50
2022-08-30T08:46:08.659Z,1.30
2022-08-30T08:49:00.036Z,1.20
2022-08-30T08:51:54.159Z,1.10
2022-08-30T08:54:51.787Z,1.10
2022-08-30T08:57:35.860Z,0.95
2022-08-30T09:00:15.066Z,1.10
2022-08-30T09:03:04.953Z,1.25
2022-08-30T09:05:40.983Z,0.93
2022-08-30T09:08:16.341Z,1.13
2022-08-30T09:11:01.763Z,1.20
2022-08-30T09:13:29.032Z,0.80
2022-08-30T09:16:00.021Z,1.00
2022-08-30T09:18:51.416Z,0.98
2022-08-30T09:21:27.483Z,0.70
2022-08-30T09:24:11.083Z,0.90
2022-08-30T09:26:38.689Z,1.00
2022-08-30T09:29:18.315Z,1.27
2022-08-30T09:34:43.997Z,0.80
2022-08-30T09:37:27.642Z,1.00
2022-08-30T09:39:55.277Z,1.10
2022-08-30T09:42:26.564Z,1.00
2022-08-30T09:45:12.347Z,1.00
2022-08-30T09:47:43.370Z,0.95
2022-08-30T09:50:24.210Z,0.90
2022-08-30T09:53:12.867Z,0.90
2022-08-30T09:56:02.807Z,1.05
2022-08-30T09:58:51.848Z,1.10
2022-08-30T10:01:36.645Z,0.90
2022-08-30T10:04:26.286Z,0.80
2022-08-30T10:07:10.953Z,1.35
2022-08-30T10:09:59.883Z,0.80
2022-08-30T10:13:13.596Z,0.90
2022-08-30T10:15:51.684Z,0.80
2022-08-30T10:18:40.846Z,0.90
2022-08-30T10:21:38.345Z,1.02
2022-08-30T10:24:20.815Z,0.70
2022-08-30T10:27:02.935Z,1.20
2022-08-30T10:29:42.277Z,0.85
2022-08-30T10:32:30.962Z,0.90
2022-08-30T10:35:07.912Z,1.02
2022-08-30T10:38:09.128Z,1.08
2022-08-30T10:41:06.073Z,0.98
2022-08-30T10:43:40.556Z,0.95
2022-08-30T10:46:24.796Z,0.90
2022-08-30T10:48:56.104Z,1.00
2022-08-30T10:51:44.947Z,0.90
2022-08-30T10:54:38.457Z,1.33
2022-08-30T10:57:05.669Z,1.03
2022-08-30T10:59:38.452Z,1.23
2022-08-30T11:02:23.453Z,0.93
2022-08-30T11:05:45.051Z,0.90
2022-08-30T11:08:58.324Z,0.95
2022-08-30T11:11:34.291Z,1.23
2022-08-30T11:14:05.944Z,0.77
2022-08-30T11:16:41.701Z,1.08
2022-08-30T11:19:41.030Z,0.80
2022-08-30T11:22:16.019Z,1.23
2022-08-30T11:25:15.678Z,0.73
2022-08-30T11:27:58.955Z,0.90
2022-08-30T11:30:26.991Z,0.90
2022-08-30T11:33:39.658Z,0.90
2022-08-30T11:36:07.202Z,1.05
2022-08-30T11:38:34.225Z,0.77
2022-08-30T11:41:09.604Z,1.40
2022-08-30T11:43:39.823Z,0.90
2022-08-30T11:46:27.914Z,0.93
2022-08-30T11:49:19.396Z,1.10
2022-08-30T11:52:36.157Z,1.02
2022-08-30T11:55:25.497Z,1.08
2022-08-30T11:58:33.679Z,0.90
2022-08-30T12:01:51.007Z,1.10
2022-08-30T12:04:17.783Z,0.70
2022-08-30T12:06:59.160Z,0.80
2022-08-30T12:09:26.747Z,0.90
2022-08-30T12:12:09.242Z,0.98
2022-08-30T12:15:06.090Z,0.90
2022-08-30T12:18:03.853Z,1.00
2022-08-30T12:20:44.871Z,0.85
2022-08-30T12:23:56.826Z,0.75
2022-08-30T12:26:25.105Z,0.95
2022-08-30T12:29:10.534Z,0.98
2022-08-30T12:31:44.966Z,0.82
2022-08-30T12:34:24.648Z,1.00
2022-08-30T12:37:42.140Z,0.90
2022-08-30T12:40:24.448Z,0.95
2022-08-30T12:43:04.678Z,0.90
2022-08-30T12:45:44.163Z,1.10
2022-08-30T12:48:18.194Z,0.85
2022-08-30T12:50:57.319Z,1.27
2022-08-30T12:53:41.838Z,0.65
2022-08-30T12:56:13.975Z,0.70
2022-08-30T12:58:51.931Z,1.00
2022-08-30T13:01:33.323Z,0.93
2022-08-30T13:04:13.980Z,0.88
2022-08-30T13:06:59.343Z,0.90
2022-08-30T13:09:36.670Z,1.00
2022-08-30T13:12:20.289Z,0.90
2022-08-30T13:14:47.653Z,1.00
2022-08-30T13:17:28.261Z,1.00
2022-08-30T13:19:59.668Z,1.00
2022-08-30T13:22:40.741Z,1.00
2022-08-30T13:25:11.418Z,0.90
2022-08-30T13:27:40.233Z,0.80
2022-08-30T13:30:18.249Z,1.20
2022-08-30T13:32:45.699Z,0.90
2022-08-30T13:35:12.896Z,1.15
2022-08-30T13:37:49.483Z,0.90
2022-08-30T13:40:21.640Z,1.02
2022-08-30T13:42:50.293Z,1.08
2022-08-30T13:48:07.624Z,1.00
2022-08-30T13:50:34.795Z,0.88
2022-08-30T13:53:01.872Z,1.10
2022-08-30T13:55:29.224Z,1.05
2022-08-30T13:57:58.236Z,0.80
2022-08-30T14:00:26.500Z,0.90
2022-08-30T14:02:57.668Z,0.82
2022-08-30T14:05:57.070Z,1.05
2022-08-30T14:08:45.560Z,0.90
2022-08-30T14:11:18.933Z,0.95
2022-08-30T14:16:42.337Z,1.10
2022-08-30T14:19:12.490Z,0.90
2022-08-30T14:21:39.758Z,1.00
2022-08-30T14:24:08.187Z,1.00
2022-08-30T14:26:48.367Z,0.90
2022-08-30T14:29:22.728Z,0.98
2022-08-30T14:31:52.229Z,0.90
2022-08-30T14:34:19.881Z,1.10
2022-08-30T14:36:47.422Z,1.13
2022-08-30T14:39:20.348Z,1.00
2022-08-30T14:41:52.099Z,1.00
2022-08-30T14:44:21.447Z,0.70
2022-08-30T14:46:49.579Z,1.10
2022-08-30T14:49:20.219Z,1.00
2022-08-30T14:51:48.554Z,0.80
2022-08-30T14:54:23.114Z,1.00
2022-08-30T14:56:55.750Z,1.20
2022-08-30T14:59:26.896Z,1.02
2022-08-30T15:01:55.266Z,1.10
2022-08-30T15:04:23.077Z,1.58
2022-08-30T15:06:51.186Z,0.90
2022-08-30T15:09:23.873Z,0.90
2022-08-30T15:11:58.727Z,1.10
2022-08-30T15:14:28.068Z,0.95
2022-08-30T15:16:58.189Z,0.90
2022-08-30T15:19:27.474Z,0.88
2022-08-30T15:22:02.477Z,0.85
2022-08-30T15:24:31.763Z,1.00
2022-08-30T15:27:00.934Z,0.95
2022-08-30T15:29:30.445Z,0.80
2022-08-30T15:32:02.531Z,0.90
2022-08-30T15:34:32.590Z,1.20
2022-08-30T15:37:01.662Z,1.70
2022-08-30T15:39:31.989Z,1.05
2022-08-30T15:42:01.011Z,1.00
2022-08-30T15:44:34.506Z,1.10
2022-08-30T15:47:01.944Z,1.00
2022-08-30T15:49:29.076Z,1.08
2022-08-30T15:52:01.820Z,0.80
2022-08-30T15:54:29.226Z,0.90
2022-08-30T15:56:59.634Z,1.00
2022-08-30T15:59:30.725Z,1.00
2022-08-30T16:01:58.270Z,1.13
2022-08-30T16:04:27.685Z,1.42
2022-08-30T16:06:54.987Z,1.02
2022-08-30T16:09:24.934Z,0.93
2022-08-30T16:11:53.868Z,1.20
2022-08-30T16:14:23.284Z,1.00
2022-08-30T16:16:50.976Z,0.90
2022-08-30T16:19:19.793Z,1.00
2022-08-30T16:21:47.923Z,1.00
2022-08-30T16:24:18.955Z,1.02
2022-08-30T16:26:50.154Z,1.00
2022-08-30T16:29:17.379Z,1.10
2022-08-30T16:31:44.859Z,1.08
2022-08-30T16:34:16.748Z,1.00
2022-08-30T16:36:44.635Z,0.93
2022-08-30T16:39:13.423Z,0.88
2022-08-30T16:41:44.326Z,1.00
2022-08-30T16:44:15.555Z,1.00
2022-08-30T16:46:43.118Z,0.90
2022-08-30T16:49:19.527Z,1.00
2022-08-30T16:51:46.621Z,0.80
2022-08-30T16:54:17.521Z,0.80
2022-08-30T16:56:45.903Z,0.80
2022-08-30T16:59:13.716Z,0.75
2022-08-30T17:01:43.419Z,1.23
2022-08-30T17:04:18.439Z,0.88
2022-08-30T17:06:50.670Z,0.90
2022-08-30T17:09:20.489Z,1.10
2022-08-30T17:11:48.591Z,0.93
2022-08-30T17:14:22.997Z,0.90
2022-08-30T17:17:00.496Z,0.90
2022-08-30T17:19:28.675Z,0.80
2022-08-30T17:21:57.987Z,0.75
2022-08-30T17:24:26.387Z,1.02
2022-08-30T17:26:55.075Z,1.00
2022-08-30T17:29:22.187Z,0.90
2022-08-30T17:31:51.110Z,0.88
2022-08-30T17:34:21.814Z,0.95
2022-08-30T17:36:51.592Z,1.10
2022-08-30T17:39:19.849Z,0.80
2022-08-30T17:41:50.622Z,0.80
2022-08-30T17:44:29.078Z,0.80
2022-08-30T17:46:58.582Z,0.95
2022-08-30T17:49:33.554Z,1.00
2022-08-30T17:52:02.174Z,0.70
2022-08-30T17:54:31.661Z,0.80
2022-08-30T17:57:00.004Z,0.98
2022-08-30T17:59:27.108Z,0.82
2022-08-30T18:01:56.537Z,0.95
2022-08-30T18:04:25.219Z,0.90
2022-08-30T18:06:53.643Z,0.90
2022-08-30T18:09:22.458Z,0.80
2022-08-30T18:11:51.244Z,0.80
2022-08-30T18:14:18.840Z,2.85
2022-08-30T18:16:53.806Z,1.02
2022-08-30T18:19:27.230Z,1.00
2022-08-30T18:21:55.229Z,1.02
2022-08-30T18:24:23.836Z,0.70
2022-08-30T18:26:54.803Z,0.88
2022-08-30T18:29:29.279Z,1.08
2022-08-30T18:32:00.543Z,0.88
2022-08-30T18:34:29.171Z,1.25
2022-08-30T18:36:57.061Z,0.95
2022-08-30T18:39:24.389Z,0.95
2022-08-30T18:41:54.355Z,1.10
2022-08-30T18:44:28.221Z,1.20
2022-08-30T18:47:00.336Z,1.20
2022-08-30T18:52:17.468Z,1.10
2022-08-30T18:54:52.797Z,0.90
2022-08-30T18:57:22.128Z,1.38
2022-08-30T18:59:51.576Z,1.35
2022-08-30T19:02:19.022Z,1.02
2022-08-30T19:04:48.937Z,0.90
2022-08-30T19:07:19.463Z,0.98
2022-08-30T19:09:46.881Z,1.30
2022-08-30T19:12:14.859Z,1.00
2022-08-30T19:14:43.185Z,0.90
2022-08-30T19:17:10.784Z,0.80
2022-08-30T19:19:45.160Z,0.85
2022-08-30T19:22:18.794Z,1.05
2022-08-30T19:24:47.401Z,1.42
2022-08-30T19:27:14.744Z,1.15
2022-08-30T19:29:44.547Z,1.17
2022-08-30T19:32:12.612Z,1.20
2022-08-30T19:34:50.104Z,0.90
2022-08-30T19:37:18.611Z,1.00
2022-08-30T19:39:46.846Z,0.80
2022-08-30T19:42:14.303Z,1.00
2022-08-30T19:44:52.765Z,0.90
2022-08-30T19:47:20.077Z,0.90
2022-08-30T19:49:47.241Z,1.02
2022-08-30T19:52:15.729Z,0.90
2022-08-30T19:54:42.883Z,1.00
2022-08-30T19:57:10.646Z,1.00
2022-08-30T19:59:38.430Z,1.10
2022-08-30T20:02:09.296Z,0.90
2022-08-30T20:04:40.832Z,1.05
2022-08-30T20:07:08.186Z,1.00
2022-08-30T20:09:35.343Z,0.90
2022-08-30T20:12:06.440Z,0.95
2022-08-30T20:14:33.891Z,0.98
2022-08-30T20:17:02.395Z,0.98
2022-08-30T20:19:30.455Z,0.90
2022-08-30T20:22:07.168Z,1.00
2022-08-30T20:24:29.581Z,1.20
2022-08-30T20:27:08.734Z,0.80
2022-08-30T20:29:37.747Z,1.00
2022-08-30T20:32:05.425Z,1.10
2022-08-30T20:34:33.635Z,0.82
2022-08-30T20:37:00.825Z,0.88
2022-08-30T20:39:28.917Z,1.00
2022-08-30T20:41:56.030Z,1.17
2022-08-30T20:44:23.264Z,1.25
2022-08-30T20:46:50.802Z,0.82
2022-08-30T20:49:19.594Z,0.80
2022-08-30T20:51:52.802Z,1.02
2022-08-30T20:54:21.972Z,0.98
2022-08-30T20:56:51.354Z,1.17
2022-08-30T20:59:18.694Z,0.90
2022-08-30T21:01:49.217Z,0.80
2022-08-30T21:04:17.146Z,1.00
2022-08-30T21:06:44.312Z,0.90
2022-08-30T21:09:11.531Z,0.85
2022-08-30T21:11:44.430Z,1.00
2022-08-30T21:14:12.543Z,1.10
2022-08-30T21:16:39.724Z,1.13
2022-08-30T21:19:07.287Z,0.95
2022-08-30T21:21:34.457Z,1.13
2022-08-30T21:24:10.269Z,1.05
2022-08-30T21:26:41.483Z,1.10
2022-08-30T21:29:09.840Z,1.17
2022-08-30T21:31:37.952Z,1.30
2022-08-30T21:34:05.947Z,1.02
2022-08-30T21:36:48.061Z,1.20
2022-08-30T21:39:27.345Z,1.00
2022-08-30T21:41:59.535Z,1.23
2022-08-30T21:44:27.883Z,1.05
2022-08-30T21:46:55.674Z,1.17
2022-08-30T21:49:24.227Z,1.30
2022-08-30T21:51:54.714Z,0.93
2022-08-30T21:54:24.941Z,1.20
2022-08-30T21:57:00.983Z,1.27
2022-08-30T21:59:29.103Z,1.38
2022-08-30T22:01:58.923Z,1.20
2022-08-30T22:04:29.410Z,1.40
2022-08-30T22:06:57.075Z,1.40
2022-08-30T22:09:25.427Z,1.10
2022-08-30T22:11:53.593Z,1.02
2022-08-30T22:14:22.624Z,1.13
2022-08-30T22:16:50.906Z,1.33
2022-08-30T22:19:23.105Z,1.20
2022-08-30T22:21:51.961Z,1.10
2022-08-30T22:24:21.819Z,1.10
2022-08-30T22:26:49.939Z,1.20
2022-08-30T22:29:18.856Z,1.20
2022-08-30T22:31:46.045Z,1.40
2022-08-30T22:34:13.147Z,1.15
2022-08-30T22:36:40.215Z,1.20
2022-08-30T22:39:08.984Z,1.10
2022-08-30T22:41:37.347Z,1.38
2022-08-30T22:44:05.157Z,1.20
2022-08-30T22:46:34.449Z,1.30
2022-08-30T22:49:05.301Z,1.33
2022-08-30T22:51:33.596Z,1.40
2022-08-30T22:54:01.622Z,1.50
2022-08-30T22:56:29.496Z,1.20
2022-08-30T22:58:58.416Z,1.05
2022-08-30T23:01:37.275Z,1.10
2022-08-30T23:04:08.570Z,1.50
2022-08-30T23:06:36.438Z,1.30
2022-08-30T23:09:06.476Z,1.17
2022-08-30T23:11:37.152Z,1.30
2022-08-30T23:14:06.724Z,1.30
2022-08-30T23:16:34.374Z,1.40
2022-08-30T23:19:01.615Z,1.30
2022-08-30T23:21:31.135Z,1.30
2022-08-30T23:24:17.512Z,1.30
2022-08-30T23:27:05.598Z,1.25
2022-08-30T23:29:53.093Z,1.30
2022-08-30T23:32:39.938Z,1.33
2022-08-30T23:35:30.371Z,1.20
2022-08-30T23:38:18.260Z,1.38
2022-08-30T23:41:03.707Z,1.30
2022-08-30T23:43:49.631Z,1.45
2022-08-30T23:46:35.611Z,1.33
2022-08-30T23:49:21.953Z,1.30
2022-08-30T23:52:07.929Z,1.30
2022-08-30T23:54:55.751Z,1.30
2022-08-30T23:57:46.024Z,1.20
